AAL762 KSHV-KIAH
Flight info
| Callsign | AAL762 |
|---|---|
| Flight time | N/A |
| Altitude | 28000 |
| Route | EMG PLANB ZEEKK3 |
| Aircraft | E75L/M-SDE3GILORVW/S |
Departure
| Time | 2026-04-25 01:13 |
|---|---|
| Airport | Shreveport Regional Airport (KSHV) |
Arrival
| Time | N/A |
|---|---|
| Airport | George Bush Intercontinental Airport (KIAH) |
| Time | Latitude | Longitude | Altitude | Speed | Heading |
|---|---|---|---|---|---|
| 2026-04-25 00:55 | 32.45254 | -93.82953 | 253 ft | 0 kts | 299° |
| 2026-04-25 01:06 | 32.45254 | -93.82952 | 253 ft | 3 kts | 299° |
| 2026-04-25 01:06 | 32.45244 | -93.82932 | 252 ft | 2 kts | 298° |
| 2026-04-25 01:07 | 32.45243 | -93.82912 | 252 ft | 2 kts | 216° |
| 2026-04-25 01:07 | 32.45246 | -93.82909 | 253 ft | 0 kts | 197° |
| 2026-04-25 01:10 | 32.45240 | -93.82914 | 252 ft | 5 kts | 219° |
| 2026-04-25 01:10 | 32.45196 | -93.82978 | 250 ft | 13 kts | 238° |
| 2026-04-25 01:11 | 32.45173 | -93.83094 | 250 ft | 17 kts | 311° |
| 2026-04-25 01:11 | 32.45276 | -93.83189 | 255 ft | 21 kts | 322° |
| 2026-04-25 01:11 | 32.45399 | -93.83300 | 262 ft | 24 kts | 322° |
| 2026-04-25 01:11 | 32.45434 | -93.83393 | 262 ft | 10 kts | 237° |
| 2026-04-25 01:12 | 32.45393 | -93.83454 | 260 ft | 10 kts | 220° |
| 2026-04-25 01:12 | 32.45356 | -93.83467 | 259 ft | 0 kts | 152° |
| 2026-04-25 01:12 | 32.45271 | -93.83382 | 257 ft | 44 kts | 142° |
| 2026-04-25 01:12 | 32.44843 | -93.83001 | 234 ft | 110 kts | 143° |
| 2026-04-25 01:13 | 32.44079 | -93.82319 | 232 ft | 164 kts | 143° |
| 2026-04-25 01:13 | 32.43070 | -93.81409 | 440 ft | 193 kts | 143° |
| 2026-04-25 01:13 | 32.41982 | -93.80466 | 1049 ft | 196 kts | 141° |
| 2026-04-25 01:13 | 32.40923 | -93.79500 | 1951 ft | 186 kts | 140° |
| 2026-04-25 01:14 | 32.39928 | -93.78569 | 2721 ft | 182 kts | 143° |
| 2026-04-25 01:14 | 32.38889 | -93.77570 | 2900 ft | 211 kts | 143° |
| 2026-04-25 01:14 | 32.37681 | -93.76394 | 3236 ft | 234 kts | 142° |
| 2026-04-25 01:14 | 32.36373 | -93.75134 | 3749 ft | 246 kts | 150° |
| 2026-04-25 01:15 | 32.34760 | -93.74532 | 4198 ft | 250 kts | 187° |
| 2026-04-25 01:15 | 32.33015 | -93.74813 | 4731 ft | 255 kts | 192° |
| 2026-04-25 01:15 | 32.31240 | -93.75132 | 5305 ft | 261 kts | 190° |
| 2026-04-25 01:15 | 32.29425 | -93.74856 | 5808 ft | 277 kts | 159° |
| 2026-04-25 01:16 | 32.27743 | -93.73714 | 6373 ft | 283 kts | 150° |
| 2026-04-25 01:16 | 32.26090 | -93.72400 | 6922 ft | 287 kts | 149° |
| 2026-04-25 01:16 | 32.24440 | -93.71032 | 7461 ft | 290 kts | 150° |
| 2026-04-25 01:16 | 32.22638 | -93.70119 | 7909 ft | 284 kts | 180° |
| 2026-04-25 01:17 | 32.20721 | -93.70443 | 8381 ft | 277 kts | 204° |
| 2026-04-25 01:17 | 32.18909 | -93.71232 | 8935 ft | 278 kts | 206° |
| 2026-04-25 01:17 | 32.17119 | -93.72063 | 9477 ft | 277 kts | 206° |
| 2026-04-25 01:17 | 32.15311 | -93.72838 | 9938 ft | 278 kts | 203° |
| 2026-04-25 01:18 | 32.13441 | -93.73469 | 10377 ft | 279 kts | 199° |
| 2026-04-25 01:18 | 32.11571 | -93.73914 | 10980 ft | 279 kts | 196° |
| 2026-04-25 01:18 | 32.09586 | -93.74254 | 11009 ft | 300 kts | 192° |
| 2026-04-25 01:18 | 32.07425 | -93.74481 | 11010 ft | 320 kts | 189° |
| 2026-04-25 01:19 | 32.05140 | -93.74609 | 11008 ft | 337 kts | 187° |
| 2026-04-25 01:19 | 32.02829 | -93.74648 | 11626 ft | 330 kts | 186° |
| 2026-04-25 01:19 | 32.00526 | -93.74635 | 12254 ft | 323 kts | 185° |
| 2026-04-25 01:19 | 31.98328 | -93.74584 | 13004 ft | 313 kts | 185° |
| 2026-04-25 01:20 | 31.96675 | -93.74533 | 13602 ft | 304 kts | 186° |
| 2026-04-25 01:20 | 31.94990 | -93.74477 | 13849 ft | 309 kts | 186° |
| 2026-04-25 01:20 | 31.92872 | -93.74414 | 14167 ft | 310 kts | 186° |
| 2026-04-25 01:20 | 31.90716 | -93.74349 | 14497 ft | 310 kts | 186° |
| 2026-04-25 01:21 | 31.88555 | -93.74278 | 14870 ft | 309 kts | 186° |
| 2026-04-25 01:21 | 31.86402 | -93.74201 | 15186 ft | 312 kts | 185° |
| 2026-04-25 01:21 | 31.84222 | -93.74119 | 15513 ft | 314 kts | 185° |
| 2026-04-25 01:21 | 31.83021 | -93.74072 | 15711 ft | 315 kts | 185° |